| Date | Time | Temp. (oF) | Dew Point (oF) | Rel. Hum. (%) | Press. (in.) | Wind Dir. | Wind Speed (mph) | Hourly Rainfall (in.) |
|
|---|---|---|---|---|---|---|---|---|---|
| 1 | 08/09 | 00:00 | 66 | 61 | 86 | 30.05 | SE | 0 | 0.00 |
| 2 | 08/08 | 23:00 | 68 | 61 | 81 | 30.03 | SE | 0 | 0.00 |
| 3 | 08/08 | 22:00 | 69 | 61 | 77 | 30.02 | SE | 0 | 0.00 |
| 4 | 08/08 | 21:00 | 72 | 60 | 67 | 30.00 | SE | 0 | 0.00 |
| 5 | 08/08 | 20:00 | 77 | 60 | 58 | 29.97 | NE | 3 | 0.00 |
| 6 | 08/08 | 19:00 | 79 | 61 | 55 | 29.96 | ENE | 4 | 0.00 |
| 7 | 08/08 | 18:00 | 82 | 63 | 53 | 29.97 | E | 0 | 0.00 |
| 8 | 08/08 | 17:00 | 83 | 62 | 51 | 29.97 | NE | 0 | 0.00 |
| 9 | miss | miss | miss | miss | miss | miss | miss | miss | |
| 10 | 08/08 | 16:15 | 81 | 63 | 56 | 29.98 | ESE | 4 | 0.00 |
| 11 | miss | miss | miss | miss | miss | miss | miss | miss | |
| 12 | 08/08 | 16:13 | 81 | 63 | 56 | 29.98 | NE | 0 | 0.00 |
| 13 | miss | miss | miss | miss | miss | miss | miss | miss | |
| 14 | 08/08 | 16:11 | 81 | 63 | 55 | 29.98 | E | 2 | 0.00 |
| 15 | miss | miss | miss | miss | miss | miss | miss | miss | |
| 16 | 08/08 | 16:09 | 81 | 63 | 55 | 29.98 | ENE | 2 | 0.00 |
| 17 | miss | miss | miss | miss | miss | miss | miss | miss | |
| 18 | 08/08 | 16:07 | 81 | 63 | 55 | 29.98 | NE | 3 | 0.00 |
| 19 | miss | miss | miss | miss | miss | miss | miss | miss | |
| 20 | 08/08 | 16:05 | 81 | 64 | 57 | 29.98 | NE | 2 | 0.00 |
| 21 | miss | miss | miss | miss | miss | miss | miss | miss | |
| 22 | 08/08 | 16:03 | 81 | 64 | 57 | 29.98 | ENE | 1 | 0.00 |
| 23 | miss | miss | miss | miss | miss | miss | miss | miss | |
| 24 | 08/08 | 16:01 | 81 | 64 | 58 | 29.97 | ENE | 4 | 0.00 |
| 25 | miss | miss | miss | miss | miss | miss | miss | miss | |
| 26 | 08/08 | 16:00 | 81 | 64 | 57 | 29.98 | ENE | 4 | 0.00 |
| 27 | miss | miss | miss | miss | miss | miss | miss | miss | |
| 28 | 08/08 | 16:00 | 81 | 64 | 57 | 29.98 | ENE | 4 | 0.00 |
| 29 | miss | miss | miss | miss | miss | miss | miss | miss | |
| 30 | 08/08 | 16:00 | 81 | 64 | 57 | 29.98 | ENE | 4 | 0.00 |
| 31 | miss | miss | miss | miss | miss | miss | miss | miss | |
| 32 | 08/08 | 16:00 | 81 | 64 | 57 | 29.98 | ENE | 4 | 0.00 |
| 33 | 08/08 | 15:59 | 81 | 64 | 57 | 29.98 | ESE | 3 | 0.00 |
| 34 | 08/08 | 15:00 | 81 | 62 | 54 | 29.99 | E | 3 | 0.00 |
| 35 | 08/08 | 14:00 | 82 | 61 | 51 | 29.99 | ENE | 3 | 0.00 |
| 36 | 08/08 | 13:00 | 81 | 62 | 54 | 29.99 | ESE | 0 | 0.00 |
| 37 | 08/08 | 12:00 | 83 | 62 | 51 | 29.99 | E | 7 | 0.00 |
| 38 | 08/08 | 11:00 | 79 | 62 | 57 | 29.99 | ENE | 4 | 0.00 |
| 39 | 08/08 | 10:00 | 76 | 61 | 60 | 29.99 | ENE | 5 | 0.00 |
| 40 | 08/08 | 09:00 | 70 | 65 | 85 | 29.99 | NE | 0 | 0.00 |
| 41 | 08/08 | 08:00 | 67 | 65 | 95 | 29.97 | SW | 0 | 0.00 |
| 42 | 08/08 | 07:00 | 65 | 63 | 95 | 29.95 | SW | 0 | 0.00 |
| 43 | 08/08 | 06:00 | 65 | 62 | 93 | 29.94 | SW | 0 | 0.00 |
| 44 | 08/08 | 05:00 | 65 | 62 | 93 | 29.93 | SW | 0 | 0.00 |
| 45 | 08/08 | 04:00 | 66 | 63 | 91 | 29.92 | SW | 0 | 0.00 |
| 46 | 08/08 | 03:00 | 67 | 63 | 90 | 29.91 | WSW | 0 | 0.00 |
| 47 | 08/08 | 02:00 | 67 | 63 | 89 | 29.89 | SSE | 0 | 0.00 |
| 48 | 08/08 | 01:00 | 68 | 63 | 85 | 29.89 | SSW | 0 | 0.00 |
| 49 | 08/08 | 00:00 | 69 | 62 | 79 | 29.88 | S | 0 | 0.00 |
| 50 | 08/07 | 23:00 | 72 | 63 | 74 | 29.88 | S | 0 | 0.00 |
| 51 | 08/07 | 22:00 | 73 | 63 | 72 | 29.89 | SSE | 0 | 0.00 |
| 52 | 08/07 | 21:00 | 75 | 62 | 66 | 29.87 | SSE | 2 | 0.00 |
| 53 | 08/07 | 20:00 | 79 | 60 | 54 | 29.84 | SSE | 0 | 0.00 |
| 54 | 08/07 | 19:00 | 81 | 58 | 46 | 29.83 | S | 2 | 0.00 |
| 55 | 08/07 | 18:00 | 84 | 58 | 42 | 29.82 | SSE | 3 | 0.00 |
| 56 | 08/07 | 17:00 | 86 | 59 | 41 | 29.83 | N | 2 | 0.00 |
| 57 | 08/07 | 16:00 | 87 | 58 | 38 | 29.85 | NNE | 9 | 0.00 |
| 58 | 08/07 | 15:00 | 86 | 59 | 41 | 29.86 | WSW | 3 | 0.00 |
| 59 | 08/07 | 14:00 | 86 | 61 | 44 | 29.86 | SW | 0 | 0.00 |
| 60 | 08/07 | 13:00 | 84 | 60 | 45 | 29.86 | N | 0 | 0.00 |
| 61 | 08/07 | 12:00 | 82 | 64 | 56 | 29.86 | NE | 0 | 0.00 |
| 62 | 08/07 | 11:00 | 80 | 64 | 59 | 29.87 | S | 1 | 0.00 |
| 63 | 08/07 | 10:00 | 77 | 64 | 66 | 29.87 | SW | 1 | 0.00 |
| 64 | 08/07 | 09:00 | 72 | 63 | 74 | 29.86 | SSW | 1 | 0.00 |
| 65 | 08/07 | 08:00 | 65 | 61 | 88 | 29.86 | SSE | 2 | 0.00 |
| 66 | 08/07 | 07:00 | 61 | 59 | 96 | 29.84 | SSE | 0 | 0.00 |
| 67 | 08/07 | 06:00 | 61 | 58 | 92 | 29.82 | SSW | 0 | 0.00 |
| 68 | 08/07 | 05:00 | 62 | 58 | 89 | 29.80 | SSE | 0 | 0.00 |
| 69 | 08/07 | 04:00 | 64 | 58 | 83 | 29.79 | SSW | 0 | 0.00 |
| 70 | 08/07 | 03:00 | 65 | 59 | 82 | 29.77 | N | 0 | 0.00 |
| 71 | 08/07 | 02:00 | 68 | 60 | 77 | 29.76 | SW | 0 | 0.00 |
| 72 | 08/07 | 01:00 | 69 | 61 | 76 | 29.77 | SW | 0 | 0.00 |
| 73 | 08/07 | 00:00 | 72 | 63 | 74 | 29.76 | NNW | 0 | 0.00 |